^^
Saratoga-Weather Station Historical Data
Daily Summary for May 18, 2022 Units:  Both    English   Metric
Daily Weekly Monthly Yearly Custom
  High: Low: Average:
Temperature: 86.4 °F /  30.2 °C 55.6 °F /  13.1 °C 71.2 °F /  21.8 °C
Dew Point: 61.7 °F /  16.5 °C 52.5 °F /  11.4 °C 57 °F /  13.9 °C
Humidity: 92% 34% 64%
Wind Speed: 6mph /  9.7km/h - 1mph /  1.6km/h
Wind Gust: 11mph /  17.7km/h - -
Wind- - ESE
Pressure: 30.1 in /  1020.3 hPa 30 in /  1016.9 hPa -
Precipitation: 0 in /  0.0 mm    
Historical Graphs
 
 
Tabular Data for May 18, 2022
Time Temperature Dew Point Pressure Wind Wind Speed Wind Gust Humidity Rainfall Rate (Hourly) solar
00:00 63 °F /  17.2 °C 55.6 °F /  13.1 °C 30.1in /  1018.3hPa Calm     77% 0in /  0.0mm 0 W/m2
00:06 62.8 °F /  17.1 °C 55.8 °F /  13.2 °C 30.1in /  1018.0hPa Calm     78% 0in /  0.0mm 0 W/m2
00:11 62.4 °F /  16.9 °C 55.4 °F /  13 °C 30.1in /  1018.3hPa Calm     78% 0in /  0.0mm 0 W/m2
00:16 62.4 °F /  16.9 °C 55.4 °F /  13 °C 30.1in /  1018.3hPa Calm     78% 0in /  0.0mm 0 W/m2
00:21 62.2 °F /  16.8 °C 55.2 °F /  12.9 °C 30.1in /  1018.3hPa Calm     78% 0in /  0.0mm 0 W/m2
00:26 62.2 °F /  16.8 °C 55.6 °F /  13.1 °C 30.1in /  1018.3hPa Calm     79% 0in /  0.0mm 0 W/m2
00:31 62.1 °F /  16.7 °C 55.8 °F /  13.2 °C 30.1in /  1018.3hPa Calm     80% 0in /  0.0mm 0 W/m2
00:36 61.7 °F /  16.5 °C 55.4 °F /  13 °C 30.1in /  1018.3hPa Calm     80% 0in /  0.0mm 0 W/m2
00:41 61.5 °F /  16.4 °C 55.2 °F /  12.9 °C 30.1in /  1018.3hPa Calm     80% 0in /  0.0mm 0 W/m2
00:46 61.3 °F /  16.3 °C 55 °F /  12.8 °C 30.1in /  1018.6hPa Calm     80% 0in /  0.0mm 0 W/m2
00:51 61.2 °F /  16.2 °C 55.2 °F /  12.9 °C 30.1in /  1018.6hPa SE 0.9mph /  1.4km/h 1mph /  1.6km/h 81% 0in /  0.0mm 0 W/m2
00:56 61 °F /  16.1 °C 55.4 °F /  13 °C 30.1in /  1018.6hPa Calm     82% 0in /  0.0mm 0 W/m2
01:01 61 °F /  16.1 °C 55.4 °F /  13 °C 30.1in /  1018.3hPa Calm     82% 0in /  0.0mm 0 W/m2
01:06 60.6 °F /  15.9 °C 55 °F /  12.8 °C 30.1in /  1018.3hPa Calm     82% 0in /  0.0mm 0 W/m2
01:11 60.6 °F /  15.9 °C 55.4 °F /  13 °C 30.1in /  1018.3hPa Calm     83% 0in /  0.0mm 0 W/m2
01:16 60.4 °F /  15.8 °C 55.6 °F /  13.1 °C 30.1in /  1018.6hPa Calm     84% 0in /  0.0mm 0 W/m2
01:21 60.3 °F /  15.7 °C 55.4 °F /  13 °C 30.1in /  1018.6hPa Calm     84% 0in /  0.0mm 0 W/m2
01:26 60.3 °F /  15.7 °C 55.4 °F /  13 °C 30.1in /  1018.6hPa Calm     84% 0in /  0.0mm 0 W/m2
01:31 60.3 °F /  15.7 °C 55.4 °F /  13 °C 30.1in /  1018.6hPa Calm     84% 0in /  0.0mm 0 W/m2
01:36 60.1 °F /  15.6 °C 55.2 °F /  12.9 °C 30.1in /  1018.6hPa Calm     84% 0in /  0.0mm 0 W/m2
01:41 60.1 °F /  15.6 °C 55.2 °F /  12.9 °C 30.1in /  1018.6hPa Calm     84% 0in /  0.0mm 0 W/m2
01:46 60.1 °F /  15.6 °C 55.6 °F /  13.1 °C 30.1in /  1018.6hPa Calm     85% 0in /  0.0mm 0 W/m2
01:51 59.9 °F /  15.5 °C 55.4 °F /  13 °C 30.1in /  1018.6hPa Calm     85% 0in /  0.0mm 0 W/m2
01:56 59.9 °F /  15.5 °C 55.4 °F /  13 °C 30.1in /  1019.0hPa Calm     85% 0in /  0.0mm 0 W/m2
02:01 59.7 °F /  15.4 °C 55.6 °F /  13.1 °C 30.1in /  1019.0hPa Calm     86% 0in /  0.0mm 0 W/m2
02:06 59.7 °F /  15.4 °C 55.6 °F /  13.1 °C 30.1in /  1019.0hPa Calm     86% 0in /  0.0mm 0 W/m2
02:11 59.5 °F /  15.3 °C 55.6 °F /  13.1 °C 30.1in /  1019.0hPa Calm     87% 0in /  0.0mm 0 W/m2
02:16 59.5 °F /  15.3 °C 55.6 °F /  13.1 °C 30.1in /  1019.0hPa Calm     87% 0in /  0.0mm 0 W/m2
02:21 59.5 °F /  15.3 °C 55.6 °F /  13.1 °C 30.1in /  1019.0hPa Calm     87% 0in /  0.0mm 0 W/m2
02:26 59.4 °F /  15.2 °C 55.4 °F /  13 °C 30.1in /  1019.0hPa Calm     87% 0in /  0.0mm 0 W/m2
02:31 59.4 °F /  15.2 °C 55.4 °F /  13 °C 30.1in /  1019.0hPa Calm     87% 0in /  0.0mm 0 W/m2
02:36 59.2 °F /  15.1 °C 55.4 °F /  13 °C 30.1in /  1019.0hPa Calm     87% 0in /  0.0mm 0 W/m2
02:41 59 °F /  15 °C 55.2 °F /  12.9 °C 30.1in /  1019.0hPa Calm     87% 0in /  0.0mm 0 W/m2
02:46 58.8 °F /  14.9 °C 55 °F /  12.8 °C 30.1in /  1019.0hPa Calm     87% 0in /  0.0mm 0 W/m2
02:51 58.6 °F /  14.8 °C 54.9 °F /  12.7 °C 30.1in /  1019.0hPa Calm     87% 0in /  0.0mm 0 W/m2
02:56 58.6 °F /  14.8 °C 55 °F /  12.8 °C 30.1in /  1019.0hPa Calm     88% 0in /  0.0mm 0 W/m2
03:01 58.5 °F /  14.7 °C 54.9 °F /  12.7 °C 30.1in /  1019.0hPa Calm     88% 0in /  0.0mm 0 W/m2
03:06 58.5 °F /  14.7 °C 54.9 °F /  12.7 °C 30.1in /  1019.0hPa Calm     88% 0in /  0.0mm 0 W/m2
03:11 58.3 °F /  14.6 °C 54.7 °F /  12.6 °C 30.1in /  1019.0hPa Calm     88% 0in /  0.0mm 0 W/m2
03:16 58.3 °F /  14.6 °C 54.7 °F /  12.6 °C 30.1in /  1019.0hPa Calm     88% 0in /  0.0mm 0 W/m2
03:21 58.3 °F /  14.6 °C 54.7 °F /  12.6 °C 30.1in /  1019.0hPa Calm     88% 0in /  0.0mm 0 W/m2
03:26 58.1 °F /  14.5 °C 54.5 °F /  12.5 °C 30.1in /  1019.0hPa Calm     88% 0in /  0.0mm 0 W/m2
03:31 57.9 °F /  14.4 °C 54.3 °F /  12.4 °C 30.1in /  1019.0hPa Calm     88% 0in /  0.0mm 0 W/m2
03:36 57.9 °F /  14.4 °C 54.3 °F /  12.4 °C 30.1in /  1019.0hPa Calm     88% 0in /  0.0mm 0 W/m2
03:41 57.7 °F /  14.3 °C 54.5 °F /  12.5 °C 30.1in /  1019.0hPa Calm     89% 0in /  0.0mm 0 W/m2
03:46 57.7 °F /  14.3 °C 54.5 °F /  12.5 °C 30.1in /  1019.0hPa Calm     89% 0in /  0.0mm 0 W/m2
03:51 57.7 °F /  14.3 °C 54.5 °F /  12.5 °C 30.1in /  1019.0hPa Calm     89% 0in /  0.0mm 0 W/m2
03:56 57.6 °F /  14.2 °C 54.3 °F /  12.4 °C 30.1in /  1019.0hPa Calm     89% 0in /  0.0mm 0 W/m2
04:01 57.4 °F /  14.1 °C 54.1 °F /  12.3 °C 30.1in /  1019.0hPa Calm     89% 0in /  0.0mm 0 W/m2
04:06 57.4 °F /  14.1 °C 54.1 °F /  12.3 °C 30.1in /  1019.0hPa Calm     89% 0in /  0.0mm 0 W/m2
04:11 57 °F /  13.9 °C 53.8 °F /  12.1 °C 30.1in /  1019.0hPa Calm     89% 0in /  0.0mm 0 W/m2
04:16 56.8 °F /  13.8 °C 53.6 °F /  12 °C 30.1in /  1019.3hPa Calm     89% 0in /  0.0mm 0 W/m2
04:22 56.8 °F /  13.8 °C 54 °F /  12.2 °C 30.1in /  1019.3hPa Calm     90% 0in /  0.0mm 0 W/m2
04:27 56.7 °F /  13.7 °C 53.4 °F /  11.9 °C 30.1in /  1019.3hPa Calm     89% 0in /  0.0mm 0 W/m2
04:32 56.7 °F /  13.7 °C 53.4 °F /  11.9 °C 30.1in /  1019.3hPa Calm     89% 0in /  0.0mm 0 W/m2
04:37 56.5 °F /  13.6 °C 53.2 °F /  11.8 °C 30.1in /  1019.3hPa Calm     89% 0in /  0.0mm 0 W/m2
04:42 56.7 °F /  13.7 °C 53.8 °F /  12.1 °C 30.1in /  1019.3hPa Calm     90% 0in /  0.0mm 0 W/m2
04:47 56.7 °F /  13.7 °C 53.8 °F /  12.1 °C 30.1in /  1019.3hPa Calm     90% 0in /  0.0mm 0 W/m2
04:52 56.7 °F /  13.7 °C 53.4 °F /  11.9 °C 30.1in /  1019.3hPa Calm     89% 0in /  0.0mm 0 W/m2
04:57 56.5 °F /  13.6 °C 53.2 °F /  11.8 °C 30.1in /  1019.3hPa Calm     89% 0in /  0.0mm 0 W/m2
05:02 56.5 °F /  13.6 °C 53.2 °F /  11.8 °C 30.1in /  1019.3hPa Calm     89% 0in /  0.0mm 0 W/m2
05:07 56.3 °F /  13.5 °C 53.1 °F /  11.7 °C 30.1in /  1019.3hPa Calm     89% 0in /  0.0mm 0 W/m2
05:12 56.3 °F /  13.5 °C 53.1 °F /  11.7 °C 30.1in /  1019.0hPa Calm     89% 0in /  0.0mm 0 W/m2
05:17 56.1 °F /  13.4 °C 52.9 °F /  11.6 °C 30.1in /  1019.0hPa Calm     89% 0in /  0.0mm 0 W/m2
05:22 55.9 °F /  13.3 °C 52.7 °F /  11.5 °C 30.1in /  1019.0hPa Calm     89% 0in /  0.0mm 0 W/m2
05:27 55.8 °F /  13.2 °C 52.5 °F /  11.4 °C 30.1in /  1019.3hPa Calm     89% 0in /  0.0mm 0 W/m2
05:32 55.8 °F /  13.2 °C 52.9 °F /  11.6 °C 30.1in /  1019.3hPa Calm     90% 0in /  0.0mm 0 W/m2
05:37 55.8 °F /  13.2 °C 52.9 °F /  11.6 °C 30.1in /  1019.3hPa Calm     90% 0in /  0.0mm 0 W/m2
05:42 55.6 °F /  13.1 °C 52.7 °F /  11.5 °C 30.1in /  1019.3hPa Calm     90% 0in /  0.0mm 0 W/m2
05:47 55.6 °F /  13.1 °C 52.7 °F /  11.5 °C 30.1in /  1019.3hPa Calm     90% 0in /  0.0mm 0 W/m2
05:52 55.6 °F /  13.1 °C 52.7 °F /  11.5 °C 30.1in /  1019.3hPa Calm     90% 0in /  0.0mm 5 W/m2
05:57 55.8 °F /  13.2 °C 53.2 °F /  11.8 °C 30.1in /  1019.3hPa Calm     91% 0in /  0.0mm 5 W/m2
06:02 55.8 °F /  13.2 °C 52.9 °F /  11.6 °C 30.1in /  1019.3hPa Calm     90% 0in /  0.0mm 9 W/m2
06:07 55.6 °F /  13.1 °C 52.7 °F /  11.5 °C 30.1in /  1019.6hPa Calm     90% 0in /  0.0mm 11 W/m2
06:12 55.6 °F /  13.1 °C 52.7 °F /  11.5 °C 30.1in /  1019.6hPa Calm     90% 0in /  0.0mm 12 W/m2
06:17 55.6 °F /  13.1 °C 52.7 °F /  11.5 °C 30.1in /  1019.6hPa Calm     90% 0in /  0.0mm 14 W/m2
06:22 55.8 °F /  13.2 °C 53.2 °F /  11.8 °C 30.1in /  1019.6hPa Calm     91% 0in /  0.0mm 12 W/m2
06:27 55.8 °F /  13.2 °C 53.2 °F /  11.8 °C 30.1in /  1019.6hPa Calm     91% 0in /  0.0mm 14 W/m2
06:32 55.9 °F /  13.3 °C 53.4 °F /  11.9 °C 30.1in /  1019.6hPa Calm     91% 0in /  0.0mm 14 W/m2
06:37 55.9 °F /  13.3 °C 53.4 °F /  11.9 °C 30.1in /  1019.6hPa Calm     91% 0in /  0.0mm 16 W/m2
06:42 55.9 °F /  13.3 °C 53.4 °F /  11.9 °C 30.1in /  1019.6hPa Calm     91% 0in /  0.0mm 19 W/m2
06:47 56.1 °F /  13.4 °C 53.6 °F /  12 °C 30.1in /  1019.6hPa Calm     91% 0in /  0.0mm 21 W/m2
06:52 56.1 °F /  13.4 °C 53.6 °F /  12 °C 30.1in /  1019.6hPa Calm     91% 0in /  0.0mm 23 W/m2
06:57 56.3 °F /  13.5 °C 53.8 °F /  12.1 °C 30.1in /  1019.6hPa Calm     91% 0in /  0.0mm 25 W/m2
07:02 56.5 °F /  13.6 °C 54 °F /  12.2 °C 30.1in /  1020.0hPa Calm     91% 0in /  0.0mm 28 W/m2
07:07 56.7 °F /  13.7 °C 54.1 °F /  12.3 °C 30.1in /  1020.0hPa Calm     91% 0in /  0.0mm 28 W/m2
07:12 56.7 °F /  13.7 °C 54.1 °F /  12.3 °C 30.1in /  1020.0hPa Calm     91% 0in /  0.0mm 46 W/m2
07:17 57 °F /  13.9 °C 54.5 °F /  12.5 °C 30.1in /  1020.0hPa Calm     91% 0in /  0.0mm 107 W/m2
07:22 57.7 °F /  14.3 °C 55.4 °F /  13 °C 30.1in /  1020.0hPa Calm     92% 0in /  0.0mm 97 W/m2
07:27 58.6 °F /  14.8 °C 55.9 °F /  13.3 °C 30.1in /  1020.0hPa Calm     91% 0in /  0.0mm 137 W/m2
07:32 60.3 °F /  15.7 °C 57 °F /  13.9 °C 30.1in /  1020.0hPa Calm     89% 0in /  0.0mm 151 W/m2
07:37 61.9 °F /  16.6 °C 57.4 °F /  14.1 °C 30.1in /  1020.0hPa SE 0.9mph /  1.4km/h 1mph /  1.6km/h 85% 0in /  0.0mm 163 W/m2
07:42 63.5 °F /  17.5 °C 57.6 °F /  14.2 °C 30.1in /  1020.0hPa Calm     81% 0in /  0.0mm 176 W/m2
07:47 64.8 °F /  18.2 °C 58.1 °F /  14.5 °C 30.1in /  1020.0hPa Calm     79% 0in /  0.0mm 195 W/m2
07:52 65.8 °F /  18.8 °C 57.4 °F /  14.1 °C 30.1in /  1020.3hPa Calm     74% 0in /  0.0mm 199 W/m2
07:57 66.6 °F /  19.2 °C 57.2 °F /  14 °C 30.1in /  1020.3hPa Calm     72% 0in /  0.0mm 227 W/m2
08:02 67.1 °F /  19.5 °C 57 °F /  13.9 °C 30.1in /  1020.3hPa SE 0.9mph /  1.4km/h 1mph /  1.6km/h 70% 0in /  0.0mm 234 W/m2
08:07 67.8 °F /  19.9 °C 57.2 °F /  14 °C 30.1in /  1020.3hPa ESE 2mph /  3.2km/h 3mph /  4.8km/h 69% 0in /  0.0mm 165 W/m2
08:12 68.2 °F /  20.1 °C 56.8 °F /  13.8 °C 30.1in /  1020.3hPa East 2mph /  3.2km/h 3mph /  4.8km/h 67% 0in /  0.0mm 90 W/m2
08:17 67.8 °F /  19.9 °C 56.5 °F /  13.6 °C 30.1in /  1020.3hPa NNE 0.9mph /  1.4km/h 4mph /  6.4km/h 67% 0in /  0.0mm 56 W/m2
08:22 67.8 °F /  19.9 °C 56.5 °F /  13.6 °C 30.1in /  1020.3hPa ENE 2mph /  3.2km/h 2mph /  3.2km/h 67% 0in /  0.0mm 51 W/m2
08:27 68 °F /  20 °C 56.7 °F /  13.7 °C 30.1in /  1020.3hPa ENE 0.9mph /  1.4km/h 3mph /  4.8km/h 67% 0in /  0.0mm 54 W/m2
08:32 68.2 °F /  20.1 °C 56.8 °F /  13.8 °C 30.1in /  1020.3hPa ESE 0.9mph /  1.4km/h 2mph /  3.2km/h 67% 0in /  0.0mm 51 W/m2
08:37 68.4 °F /  20.2 °C 57.4 °F /  14.1 °C 30.1in /  1020.3hPa East 2mph /  3.2km/h 3mph /  4.8km/h 68% 0in /  0.0mm 53 W/m2
08:42 68.4 °F /  20.2 °C 57 °F /  13.9 °C 30.1in /  1020.3hPa East 2mph /  3.2km/h 2mph /  3.2km/h 67% 0in /  0.0mm 54 W/m2
08:47 68.5 °F /  20.3 °C 56.7 °F /  13.7 °C 30.1in /  1020.3hPa East 0.9mph /  1.4km/h 2mph /  3.2km/h 66% 0in /  0.0mm 54 W/m2
08:52 69.1 °F /  20.6 °C 57.2 °F /  14 °C 30.1in /  1020.3hPa East 0.9mph /  1.4km/h 3mph /  4.8km/h 66% 0in /  0.0mm 54 W/m2
08:57 69.3 °F /  20.7 °C 57 °F /  13.9 °C 30.1in /  1020.3hPa ESE 0.9mph /  1.4km/h 1mph /  1.6km/h 65% 0in /  0.0mm 51 W/m2
09:02 69.1 °F /  20.6 °C 57.2 °F /  14 °C 30.1in /  1020.3hPa ENE 0.9mph /  1.4km/h 2mph /  3.2km/h 66% 0in /  0.0mm 54 W/m2
09:07 69.3 °F /  20.7 °C 57.4 °F /  14.1 °C 30.1in /  1020.3hPa ENE 0.9mph /  1.4km/h 3mph /  4.8km/h 66% 0in /  0.0mm 54 W/m2
09:12 69.3 °F /  20.7 °C 57.4 °F /  14.1 °C 30.1in /  1020.3hPa SE 2mph /  3.2km/h 3mph /  4.8km/h 66% 0in /  0.0mm 54 W/m2
09:17 69.3 °F /  20.7 °C 57.4 °F /  14.1 °C 30.1in /  1020.3hPa NE 2.9mph /  4.7km/h 4mph /  6.4km/h 66% 0in /  0.0mm 54 W/m2
09:22 69.4 °F /  20.8 °C 57.6 °F /  14.2 °C 30.1in /  1020.3hPa ENE 0.9mph /  1.4km/h 3mph /  4.8km/h 66% 0in /  0.0mm 54 W/m2
09:27 70 °F /  21.1 °C 57.2 °F /  14 °C 30.1in /  1020.3hPa NNE 2mph /  3.2km/h 2mph /  3.2km/h 64% 0in /  0.0mm 56 W/m2
09:32 70 °F /  21.1 °C 57.7 °F /  14.3 °C 30.1in /  1020.3hPa ESE 2.9mph /  4.7km/h 3mph /  4.8km/h 65% 0in /  0.0mm 58 W/m2
09:37 70.3 °F /  21.3 °C 58.1 °F /  14.5 °C 30.1in /  1020.3hPa NE 2mph /  3.2km/h 2mph /  3.2km/h 65% 0in /  0.0mm 60 W/m2
09:42 70.9 °F /  21.6 °C 58.1 °F /  14.5 °C 30.1in /  1020.3hPa ENE 2mph /  3.2km/h 4mph /  6.4km/h 64% 0in /  0.0mm 60 W/m2
09:47 70.9 °F /  21.6 °C 58.5 °F /  14.7 °C 30.1in /  1020.3hPa ENE 2mph /  3.2km/h 3mph /  4.8km/h 65% 0in /  0.0mm 62 W/m2
09:52 70.9 °F /  21.6 °C 58.1 °F /  14.5 °C 30.1in /  1020.3hPa East 2mph /  3.2km/h 3mph /  4.8km/h 64% 0in /  0.0mm 58 W/m2
09:57 71.2 °F /  21.8 °C 58.8 °F /  14.9 °C 30.1in /  1020.3hPa Calm   3mph /  4.8km/h 65% 0in /  0.0mm 91 W/m2
10:02 71.8 °F /  22.1 °C 58.5 °F /  14.7 °C 30.1in /  1020.3hPa East 2.9mph /  4.7km/h 6mph /  9.7km/h 63% 0in /  0.0mm 527 W/m2
10:07 72 °F /  22.2 °C 58.3 °F /  14.6 °C 30.1in /  1020.3hPa East 2.9mph /  4.7km/h 4mph /  6.4km/h 62% 0in /  0.0mm 568 W/m2
10:12 72.1 °F /  22.3 °C 58.5 °F /  14.7 °C 30.1in /  1020.3hPa NE 0.9mph /  1.4km/h 3mph /  4.8km/h 62% 0in /  0.0mm 580 W/m2
10:17 72.1 °F /  22.3 °C 58.5 °F /  14.7 °C 30.1in /  1020.3hPa ESE 2mph /  3.2km/h 4mph /  6.4km/h 62% 0in /  0.0mm 591 W/m2
10:22 72.9 °F /  22.7 °C 59 °F /  15 °C 30.1in /  1020.3hPa NE 0.9mph /  1.4km/h 4mph /  6.4km/h 62% 0in /  0.0mm 605 W/m2
10:27 73 °F /  22.8 °C 59.2 °F /  15.1 °C 30.1in /  1020.3hPa NE 0.9mph /  1.4km/h 3mph /  4.8km/h 62% 0in /  0.0mm 621 W/m2
10:32 73.2 °F /  22.9 °C 59 °F /  15 °C 30.1in /  1020.3hPa ESE 2mph /  3.2km/h 6mph /  9.7km/h 61% 0in /  0.0mm 635 W/m2
10:37 73.6 °F /  23.1 °C 59.4 °F /  15.2 °C 30.1in /  1020.3hPa East 2mph /  3.2km/h 5mph /  8km/h 61% 0in /  0.0mm 643 W/m2
10:42 73.8 °F /  23.2 °C 59.5 °F /  15.3 °C 30.1in /  1020.3hPa East 0.9mph /  1.4km/h 3mph /  4.8km/h 61% 0in /  0.0mm 643 W/m2
10:48 73.9 °F /  23.3 °C 60.1 °F /  15.6 °C 30.1in /  1020.3hPa SE 2mph /  3.2km/h 5mph /  8km/h 62% 0in /  0.0mm 668 W/m2
10:53 74.5 °F /  23.6 °C 59.7 °F /  15.4 °C 30.1in /  1020.3hPa East 2.9mph /  4.7km/h 3mph /  4.8km/h 60% 0in /  0.0mm 675 W/m2
10:58 74.7 °F /  23.7 °C 60.3 °F /  15.7 °C 30.1in /  1020.3hPa East 2mph /  3.2km/h 4mph /  6.4km/h 61% 0in /  0.0mm 686 W/m2
11:03 75.2 °F /  24 °C 60.8 °F /  16 °C 30.1in /  1020.3hPa SE 2mph /  3.2km/h 5mph /  8km/h 61% 0in /  0.0mm 698 W/m2
11:08 75.6 °F /  24.2 °C 60.3 °F /  15.7 °C 30.1in /  1020.3hPa ESE 2mph /  3.2km/h 3mph /  4.8km/h 59% 0in /  0.0mm 708 W/m2
11:13 75.7 °F /  24.3 °C 59.9 °F /  15.5 °C 30.1in /  1020.3hPa ESE 2.9mph /  4.7km/h 3mph /  4.8km/h 58% 0in /  0.0mm 719 W/m2
11:18 76.1 °F /  24.5 °C 61.2 °F /  16.2 °C 30.1in /  1020.3hPa ESE 4mph /  6.4km/h 4mph /  6.4km/h 60% 0in /  0.0mm 735 W/m2
11:23 76.5 °F /  24.7 °C 61 °F /  16.1 °C 30.1in /  1020.3hPa NE 2.9mph /  4.7km/h 4mph /  6.4km/h 59% 0in /  0.0mm 738 W/m2
11:28 76.6 °F /  24.8 °C 60.3 °F /  15.7 °C 30.1in /  1020.3hPa East 2mph /  3.2km/h 5mph /  8km/h 57% 0in /  0.0mm 708 W/m2
11:33 76.6 °F /  24.8 °C 60.8 °F /  16 °C 30.1in /  1020.3hPa SE 2mph /  3.2km/h 4mph /  6.4km/h 58% 0in /  0.0mm 754 W/m2
11:38 77.2 °F /  25.1 °C 60.3 °F /  15.7 °C 30.1in /  1020.3hPa East 2mph /  3.2km/h 5mph /  8km/h 56% 0in /  0.0mm 763 W/m2
11:43 77.5 °F /  25.3 °C 60.1 °F /  15.6 °C 30.1in /  1020.0hPa Calm   4mph /  6.4km/h 55% 0in /  0.0mm 777 W/m2
11:48 77.7 °F /  25.4 °C 59.7 °F /  15.4 °C 30.1in /  1020.0hPa East 4mph /  6.4km/h 5mph /  8km/h 54% 0in /  0.0mm 784 W/m2
11:53 78.1 °F /  25.6 °C 60.1 °F /  15.6 °C 30.1in /  1020.0hPa SE 2mph /  3.2km/h 4mph /  6.4km/h 54% 0in /  0.0mm 796 W/m2
12:03 78.8 °F /  26 °C 60.3 °F /  15.7 °C 30.1in /  1020.0hPa NE 2mph /  3.2km/h 6mph /  9.7km/h 53% 0in /  0.0mm 768 W/m2
12:08 79.2 °F /  26.2 °C 59 °F /  15 °C 30.1in /  1020.0hPa East 4mph /  6.4km/h 4mph /  6.4km/h 50% 0in /  0.0mm 773 W/m2
12:13 79.3 °F /  26.3 °C 59.7 °F /  15.4 °C 30.1in /  1020.0hPa ESE 4mph /  6.4km/h 4mph /  6.4km/h 51% 0in /  0.0mm 809 W/m2
12:18 79.5 °F /  26.4 °C 59.2 °F /  15.1 °C 30.1in /  1019.6hPa ENE 2mph /  3.2km/h 3mph /  4.8km/h 50% 0in /  0.0mm 807 W/m2
12:23 79.9 °F /  26.6 °C 58.5 °F /  14.7 °C 30.1in /  1019.6hPa SSW 0.9mph /  1.4km/h 3mph /  4.8km/h 48% 0in /  0.0mm 837 W/m2
12:28 80.1 °F /  26.7 °C 59.7 °F /  15.4 °C 30.1in /  1019.6hPa ESE 0.9mph /  1.4km/h 4mph /  6.4km/h 50% 0in /  0.0mm 835 W/m2
12:33 80.2 °F /  26.8 °C 59.9 °F /  15.5 °C 30.1in /  1019.6hPa East 6mph /  9.7km/h 8mph /  12.9km/h 50% 0in /  0.0mm 817 W/m2
12:38 80.4 °F /  26.9 °C 58.3 °F /  14.6 °C 30.1in /  1019.6hPa WNW 2.9mph /  4.7km/h 3mph /  4.8km/h 47% 0in /  0.0mm 824 W/m2
12:43 80.6 °F /  27 °C 59.7 °F /  15.4 °C 30.1in /  1019.6hPa East 2mph /  3.2km/h 7mph /  11.3km/h 49% 0in /  0.0mm 840 W/m2
12:48 81.1 °F /  27.3 °C 59.5 °F /  15.3 °C 30.1in /  1019.6hPa ESE 0.9mph /  1.4km/h 4mph /  6.4km/h 48% 0in /  0.0mm 835 W/m2
12:53 81.3 °F /  27.4 °C 57.9 °F /  14.4 °C 30.1in /  1019.6hPa NE 0.9mph /  1.4km/h 7mph /  11.3km/h 45% 0in /  0.0mm 840 W/m2
12:58 81.7 °F /  27.6 °C 58.8 °F /  14.9 °C 30.1in /  1019.3hPa East 4.9mph /  7.9km/h 6mph /  9.7km/h 46% 0in /  0.0mm 854 W/m2
13:03 81.9 °F /  27.7 °C 58.5 °F /  14.7 °C 30.1in /  1019.3hPa NE 0.9mph /  1.4km/h 6mph /  9.7km/h 45% 0in /  0.0mm 823 W/m2
13:08 81.7 °F /  27.6 °C 59.5 °F /  15.3 °C 30.1in /  1019.3hPa East 2mph /  3.2km/h 4mph /  6.4km/h 47% 0in /  0.0mm 851 W/m2
13:13 81.7 °F /  27.6 °C 58.8 °F /  14.9 °C 30.1in /  1019.3hPa NW 2mph /  3.2km/h 4mph /  6.4km/h 46% 0in /  0.0mm 847 W/m2
13:18 82 °F /  27.8 °C 59.9 °F /  15.5 °C 30.1in /  1019.3hPa SE 2.9mph /  4.7km/h 4mph /  6.4km/h 47% 0in /  0.0mm 858 W/m2
13:23 82.2 °F /  27.9 °C 58.1 °F /  14.5 °C 30.1in /  1019.3hPa SE 2.9mph /  4.7km/h 3mph /  4.8km/h 44% 0in /  0.0mm 867 W/m2
13:28 82.6 °F /  28.1 °C 57.7 °F /  14.3 °C 30.1in /  1019.3hPa NE 2.9mph /  4.7km/h 6mph /  9.7km/h 43% 0in /  0.0mm 868 W/m2
13:33 82 °F /  27.8 °C 57.9 °F /  14.4 °C 30.1in /  1019.3hPa Calm   4mph /  6.4km/h 44% 0in /  0.0mm 858 W/m2
13:38 82.2 °F /  27.9 °C 57.6 °F /  14.2 °C 30.1in /  1019.0hPa Calm   6mph /  9.7km/h 43% 0in /  0.0mm 867 W/m2
13:43 82.8 °F /  28.2 °C 57.9 °F /  14.4 °C 30.1in /  1019.0hPa NW 4mph /  6.4km/h 5mph /  8km/h 43% 0in /  0.0mm 868 W/m2
13:48 83.1 °F /  28.4 °C 59 °F /  15 °C 30.1in /  1019.0hPa East 2mph /  3.2km/h 2mph /  3.2km/h 44% 0in /  0.0mm 865 W/m2
13:53 83.1 °F /  28.4 °C 58.3 °F /  14.6 °C 30.1in /  1019.0hPa ESE 2.9mph /  4.7km/h 6mph /  9.7km/h 43% 0in /  0.0mm 870 W/m2
13:58 82.8 °F /  28.2 °C 57.4 °F /  14.1 °C 30.1in /  1019.0hPa NNE 2.9mph /  4.7km/h 5mph /  8km/h 42% 0in /  0.0mm 868 W/m2
14:03 82.6 °F /  28.1 °C 59 °F /  15 °C 30.1in /  1019.0hPa ESE 6mph /  9.7km/h 6mph /  9.7km/h 45% 0in /  0.0mm 870 W/m2
14:08 82.9 °F /  28.3 °C 58.8 °F /  14.9 °C 30.1in /  1019.0hPa ENE 4mph /  6.4km/h 9mph /  14.5km/h 44% 0in /  0.0mm 867 W/m2
14:13 83.3 °F /  28.5 °C 57.2 °F /  14 °C 30.1in /  1019.0hPa SSE 0.9mph /  1.4km/h 2mph /  3.2km/h 41% 0in /  0.0mm 858 W/m2
14:18 83.7 °F /  28.7 °C 56.8 °F /  13.8 °C 30.1in /  1019.0hPa NE 2.9mph /  4.7km/h 9mph /  14.5km/h 40% 0in /  0.0mm 867 W/m2
14:23 83.8 °F /  28.8 °C 57 °F /  13.9 °C 30.1in /  1019.0hPa East 0.9mph /  1.4km/h 4mph /  6.4km/h 40% 0in /  0.0mm 877 W/m2
14:28 83.8 °F /  28.8 °C 57 °F /  13.9 °C 30.1in /  1019.0hPa ESE 2.9mph /  4.7km/h 3mph /  4.8km/h 40% 0in /  0.0mm 874 W/m2
14:33 84 °F /  28.9 °C 55.8 °F /  13.2 °C 30.1in /  1019.0hPa NE 2.9mph /  4.7km/h 6mph /  9.7km/h 38% 0in /  0.0mm 877 W/m2
14:38 83.8 °F /  28.8 °C 57 °F /  13.9 °C 30.1in /  1018.6hPa East 2mph /  3.2km/h 6mph /  9.7km/h 40% 0in /  0.0mm 863 W/m2
14:43 83.8 °F /  28.8 °C 56.3 °F /  13.5 °C 30.1in /  1019.0hPa ESE 0.9mph /  1.4km/h 2mph /  3.2km/h 39% 0in /  0.0mm 863 W/m2
14:48 84 °F /  28.9 °C 57 °F /  13.9 °C 30.1in /  1018.6hPa SE 2.9mph /  4.7km/h 5mph /  8km/h 40% 0in /  0.0mm 863 W/m2
14:53 84.6 °F /  29.2 °C 56.8 °F /  13.8 °C 30.1in /  1018.6hPa East 2mph /  3.2km/h 3mph /  4.8km/h 39% 0in /  0.0mm 863 W/m2
14:58 84.9 °F /  29.4 °C 55 °F /  12.8 °C 30.1in /  1018.6hPa East 0.9mph /  1.4km/h 4mph /  6.4km/h 36% 0in /  0.0mm 854 W/m2
15:03 84.7 °F /  29.3 °C 54.9 °F /  12.7 °C 30.1in /  1018.6hPa East 2.9mph /  4.7km/h 3mph /  4.8km/h 36% 0in /  0.0mm 854 W/m2
15:08 84.7 °F /  29.3 °C 53.2 °F /  11.8 °C 30.1in /  1018.6hPa WSW 2mph /  3.2km/h 4mph /  6.4km/h 34% 0in /  0.0mm 854 W/m2
15:13 84.7 °F /  29.3 °C 54.1 °F /  12.3 °C 30.1in /  1018.6hPa NE 0.9mph /  1.4km/h 3mph /  4.8km/h 35% 0in /  0.0mm 833 W/m2
15:18 85.5 °F /  29.7 °C 54 °F /  12.2 °C 30.1in /  1018.6hPa ESE 4mph /  6.4km/h 4mph /  6.4km/h 34% 0in /  0.0mm 756 W/m2
15:23 85.6 °F /  29.8 °C 55.6 °F /  13.1 °C 30.1in /  1018.6hPa ESE 0.9mph /  1.4km/h 7mph /  11.3km/h 36% 0in /  0.0mm 826 W/m2
15:28 85.6 °F /  29.8 °C 54 °F /  12.2 °C 30.1in /  1018.6hPa East 2.9mph /  4.7km/h 5mph /  8km/h 34% 0in /  0.0mm 842 W/m2
15:33 85.6 °F /  29.8 °C 54 °F /  12.2 °C 30.1in /  1018.6hPa ESE 2.9mph /  4.7km/h 5mph /  8km/h 34% 0in /  0.0mm 759 W/m2
15:38 85.6 °F /  29.8 °C 54 °F /  12.2 °C 30.1in /  1018.3hPa East 2mph /  3.2km/h 7mph /  11.3km/h 34% 0in /  0.0mm 823 W/m2
15:43 85.5 °F /  29.7 °C 54.7 °F /  12.6 °C 30.1in /  1018.3hPa WNW 0.9mph /  1.4km/h 2mph /  3.2km/h 35% 0in /  0.0mm 812 W/m2
15:48 85.6 °F /  29.8 °C 55.6 °F /  13.1 °C 30.1in /  1018.3hPa East 6mph /  9.7km/h 7mph /  11.3km/h 36% 0in /  0.0mm 761 W/m2
15:58 85.6 °F /  29.8 °C 56.3 °F /  13.5 °C 30.1in /  1018.3hPa ENE 4mph /  6.4km/h 7mph /  11.3km/h 37% 0in /  0.0mm 765 W/m2
16:03 86 °F /  30 °C 55.9 °F /  13.3 °C 30.1in /  1018.3hPa East 2mph /  3.2km/h 4mph /  6.4km/h 36% 0in /  0.0mm 733 W/m2
16:08 86 °F /  30 °C 55.2 °F /  12.9 °C 30.1in /  1018.3hPa ESE 0.9mph /  1.4km/h 4mph /  6.4km/h 35% 0in /  0.0mm 638 W/m2
16:13 85.8 °F /  29.9 °C 55 °F /  12.8 °C 30.1in /  1018.3hPa ESE 2mph /  3.2km/h 4mph /  6.4km/h 35% 0in /  0.0mm 647 W/m2
16:18 86 °F /  30 °C 55.2 °F /  12.9 °C 30.1in /  1018.0hPa East 4mph /  6.4km/h 7mph /  11.3km/h 35% 0in /  0.0mm 531 W/m2
16:23 85.8 °F /  29.9 °C 55.8 °F /  13.2 °C 30.1in /  1018.0hPa ENE 4.9mph /  7.9km/h 11mph /  17.7km/h 36% 0in /  0.0mm 475 W/m2
16:28 85.5 °F /  29.7 °C 55.4 °F /  13 °C 30.1in /  1018.0hPa SE 0.9mph /  1.4km/h 3mph /  4.8km/h 36% 0in /  0.0mm 480 W/m2
16:33 85.6 °F /  29.8 °C 57.2 °F /  14 °C 30.1in /  1018.0hPa SE 0.9mph /  1.4km/h 11mph /  17.7km/h 38% 0in /  0.0mm 464 W/m2
16:38 85.8 °F /  29.9 °C 56.5 °F /  13.6 °C 30.1in /  1018.0hPa WSW 0.9mph /  1.4km/h 3mph /  4.8km/h 37% 0in /  0.0mm 487 W/m2
16:43 85.8 °F /  29.9 °C 55.8 °F /  13.2 °C 30.1in /  1018.0hPa NNW 2mph /  3.2km/h 5mph /  8km/h 36% 0in /  0.0mm 598 W/m2
16:48 85.8 °F /  29.9 °C 55.8 °F /  13.2 °C 30.1in /  1018.0hPa East 0.9mph /  1.4km/h 4mph /  6.4km/h 36% 0in /  0.0mm 654 W/m2
16:53 86 °F /  30 °C 55.9 °F /  13.3 °C 30.1in /  1018.0hPa East 2mph /  3.2km/h 4mph /  6.4km/h 36% 0in /  0.0mm 647 W/m2
16:58 86 °F /  30 °C 55.2 °F /  12.9 °C 30.1in /  1018.0hPa Calm   1mph /  1.6km/h 35% 0in /  0.0mm 489 W/m2
17:03 85.8 °F /  29.9 °C 55.8 °F /  13.2 °C 30.1in /  1018.0hPa Calm   4mph /  6.4km/h 36% 0in /  0.0mm 512 W/m2
17:08 85.6 °F /  29.8 °C 55.6 °F /  13.1 °C 30.1in /  1018.0hPa WSW 0.9mph /  1.4km/h 1mph /  1.6km/h 36% 0in /  0.0mm 601 W/m2
17:13 85.8 °F /  29.9 °C 55.8 °F /  13.2 °C 30.1in /  1018.0hPa East 4mph /  6.4km/h 6mph /  9.7km/h 36% 0in /  0.0mm 464 W/m2
17:18 86 °F /  30 °C 55.2 °F /  12.9 °C 30.1in /  1017.6hPa ENE 0.9mph /  1.4km/h 6mph /  9.7km/h 35% 0in /  0.0mm 513 W/m2
17:32 86.4 °F /  30.2 °C 57 °F /  13.9 °C 30.1in /  1017.6hPa East 2mph /  3.2km/h 3mph /  4.8km/h 37% 0in /  0.0mm 599 W/m2
17:37 86.4 °F /  30.2 °C 57 °F /  13.9 °C 30.1in /  1017.6hPa ENE 2mph /  3.2km/h 2mph /  3.2km/h 37% 0in /  0.0mm 473 W/m2
17:42 85.8 °F /  29.9 °C 55.8 °F /  13.2 °C 30.1in /  1017.6hPa East 0.9mph /  1.4km/h 3mph /  4.8km/h 36% 0in /  0.0mm 434 W/m2
17:47 85.6 °F /  29.8 °C 55.6 °F /  13.1 °C 30.1in /  1017.6hPa ESE 2.9mph /  4.7km/h 4mph /  6.4km/h 36% 0in /  0.0mm 429 W/m2
17:52 85.5 °F /  29.7 °C 55.4 °F /  13 °C 30.1in /  1017.6hPa East 4mph /  6.4km/h 7mph /  11.3km/h 36% 0in /  0.0mm 327 W/m2
18:03 85.3 °F /  29.6 °C 56.8 °F /  13.8 °C 30.1in /  1017.6hPa Calm   2mph /  3.2km/h 38% 0in /  0.0mm 262 W/m2
18:21 85.1 °F /  29.5 °C 58.8 °F /  14.9 °C 30.1in /  1017.6hPa East 0.9mph /  1.4km/h 1mph /  1.6km/h 41% 0in /  0.0mm 281 W/m2
18:26 85.1 °F /  29.5 °C 58.8 °F /  14.9 °C 30.1in /  1017.6hPa East 0.9mph /  1.4km/h 2mph /  3.2km/h 41% 0in /  0.0mm 304 W/m2
18:31 84.9 °F /  29.4 °C 57.2 °F /  14 °C 30.1in /  1017.6hPa East 2.9mph /  4.7km/h 4mph /  6.4km/h 39% 0in /  0.0mm 287 W/m2
18:36 84.7 °F /  29.3 °C 57 °F /  13.9 °C 30in /  1017.3hPa ESE 0.9mph /  1.4km/h 3mph /  4.8km/h 39% 0in /  0.0mm 237 W/m2
18:41 84.9 °F /  29.4 °C 57.9 °F /  14.4 °C 30.1in /  1017.6hPa South 0.9mph /  1.4km/h 4mph /  6.4km/h 40% 0in /  0.0mm 167 W/m2
18:46 84.7 °F /  29.3 °C 57.7 °F /  14.3 °C 30in /  1017.3hPa Calm   1mph /  1.6km/h 40% 0in /  0.0mm 151 W/m2
18:51 84.7 °F /  29.3 °C 58.5 °F /  14.7 °C 30in /  1017.3hPa ESE 0.9mph /  1.4km/h 2mph /  3.2km/h 41% 0in /  0.0mm 142 W/m2
18:56 84.6 °F /  29.2 °C 59.5 °F /  15.3 °C 30in /  1017.3hPa East 2mph /  3.2km/h 4mph /  6.4km/h 43% 0in /  0.0mm 130 W/m2
19:01 84.4 °F /  29.1 °C 60.1 °F /  15.6 °C 30in /  1017.3hPa SSE 0.9mph /  1.4km/h 3mph /  4.8km/h 44% 0in /  0.0mm 125 W/m2
19:06 83.8 °F /  28.8 °C 59 °F /  15 °C 30in /  1017.3hPa NE 4mph /  6.4km/h 4mph /  6.4km/h 43% 0in /  0.0mm 118 W/m2
19:11 83.7 °F /  28.7 °C 60.1 °F /  15.6 °C 30in /  1017.3hPa Calm   1mph /  1.6km/h 45% 0in /  0.0mm 114 W/m2
19:16 83.5 °F /  28.6 °C 58.6 °F /  14.8 °C 30in /  1016.9hPa Calm   1mph /  1.6km/h 43% 0in /  0.0mm 116 W/m2
19:21 83.5 °F /  28.6 °C 59.4 °F /  15.2 °C 30in /  1016.9hPa SSE 0.9mph /  1.4km/h 2mph /  3.2km/h 44% 0in /  0.0mm 114 W/m2
19:27 83.5 °F /  28.6 °C 59.9 °F /  15.5 °C 30in /  1016.9hPa ESE 2mph /  3.2km/h 2mph /  3.2km/h 45% 0in /  0.0mm 116 W/m2
19:32 83.7 °F /  28.7 °C 58.1 °F /  14.5 °C 30in /  1016.9hPa ESE 0.9mph /  1.4km/h 4mph /  6.4km/h 42% 0in /  0.0mm 113 W/m2
19:37 83.7 °F /  28.7 °C 61.3 °F /  16.3 °C 30in /  1016.9hPa ESE 0.9mph /  1.4km/h 2mph /  3.2km/h 47% 0in /  0.0mm 107 W/m2
19:42 83.7 °F /  28.7 °C 61.3 °F /  16.3 °C 30in /  1017.3hPa NE 0.9mph /  1.4km/h 4mph /  6.4km/h 47% 0in /  0.0mm 100 W/m2
19:47 83.5 °F /  28.6 °C 61.7 °F /  16.5 °C 30in /  1017.3hPa SSE 0.9mph /  1.4km/h 2mph /  3.2km/h 48% 0in /  0.0mm 90 W/m2
19:52 83.1 °F /  28.4 °C 61.3 °F /  16.3 °C 30in /  1017.3hPa SSE 0.9mph /  1.4km/h 2mph /  3.2km/h 48% 0in /  0.0mm 81 W/m2
19:57 82.8 °F /  28.2 °C 61 °F /  16.1 °C 30in /  1017.3hPa Calm   3mph /  4.8km/h 48% 0in /  0.0mm 76 W/m2
20:02 82.2 °F /  27.9 °C 61.2 °F /  16.2 °C 30in /  1016.9hPa ESE 0.9mph /  1.4km/h 2mph /  3.2km/h 49% 0in /  0.0mm 88 W/m2
20:07 81.9 °F /  27.7 °C 60.8 °F /  16 °C 30in /  1016.9hPa ESE 2mph /  3.2km/h 3mph /  4.8km/h 49% 0in /  0.0mm 62 W/m2
20:12 81.3 °F /  27.4 °C 61 °F /  16.1 °C 30in /  1016.9hPa ESE 0.9mph /  1.4km/h 2mph /  3.2km/h 50% 0in /  0.0mm 47 W/m2
20:17 80.6 °F /  27 °C 60.8 °F /  16 °C 30in /  1016.9hPa ESE 0.9mph /  1.4km/h 2mph /  3.2km/h 51% 0in /  0.0mm 44 W/m2
20:22 80.1 °F /  26.7 °C 60.8 °F /  16 °C 30in /  1016.9hPa Calm   2mph /  3.2km/h 52% 0in /  0.0mm 40 W/m2
20:27 79.3 °F /  26.3 °C 60.3 °F /  15.7 °C 30in /  1017.3hPa Calm   2mph /  3.2km/h 52% 0in /  0.0mm 35 W/m2
20:32 79 °F /  26.1 °C 60.4 °F /  15.8 °C 30in /  1016.9hPa ESE 2mph /  3.2km/h 2mph /  3.2km/h 53% 0in /  0.0mm 30 W/m2
20:37 78.4 °F /  25.8 °C 60.4 °F /  15.8 °C 30in /  1016.9hPa ESE 0.9mph /  1.4km/h 1mph /  1.6km/h 54% 0in /  0.0mm 26 W/m2
20:42 78.3 °F /  25.7 °C 59.7 °F /  15.4 °C 30in /  1016.9hPa ESE 0.9mph /  1.4km/h 1mph /  1.6km/h 53% 0in /  0.0mm 26 W/m2
20:47 77.7 °F /  25.4 °C 60.3 °F /  15.7 °C 30in /  1016.9hPa ESE 0.9mph /  1.4km/h 1mph /  1.6km/h 55% 0in /  0.0mm 25 W/m2
20:52 77.4 °F /  25.2 °C 59.9 °F /  15.5 °C 30in /  1016.9hPa Calm   1mph /  1.6km/h 55% 0in /  0.0mm 19 W/m2
20:57 77.2 °F /  25.1 °C 59.7 °F /  15.4 °C 30in /  1016.9hPa ESE 0.9mph /  1.4km/h 2mph /  3.2km/h 55% 0in /  0.0mm 14 W/m2
21:02 76.6 °F /  24.8 °C 59.7 °F /  15.4 °C 30in /  1016.9hPa ESE 0.9mph /  1.4km/h 1mph /  1.6km/h 56% 0in /  0.0mm 11 W/m2
21:07 76.3 °F /  24.6 °C 59.9 °F /  15.5 °C 30in /  1016.9hPa Calm   1mph /  1.6km/h 57% 0in /  0.0mm 7 W/m2
21:12 75.7 °F /  24.3 °C 59.4 °F /  15.2 °C 30in /  1016.9hPa ESE 0.9mph /  1.4km/h 1mph /  1.6km/h 57% 0in /  0.0mm 5 W/m2
21:17 75.2 °F /  24 °C 59.4 °F /  15.2 °C 30in /  1016.9hPa Calm   1mph /  1.6km/h 58% 0in /  0.0mm 0 W/m2
21:22 74.7 °F /  23.7 °C 59.9 °F /  15.5 °C 30in /  1016.9hPa Calm     60% 0in /  0.0mm 0 W/m2
21:27 74.1 °F /  23.4 °C 59.4 °F /  15.2 °C 30in /  1016.9hPa Calm     60% 0in /  0.0mm 0 W/m2
21:32 73.8 °F /  23.2 °C 59.9 °F /  15.5 °C 30in /  1016.9hPa Calm     62% 0in /  0.0mm 0 W/m2
21:37 73.2 °F /  22.9 °C 59.4 °F /  15.2 °C 30in /  1017.3hPa Calm     62% 0in /  0.0mm 0 W/m2
21:42 72.9 °F /  22.7 °C 59.5 °F /  15.3 °C 30in /  1017.3hPa Calm     63% 0in /  0.0mm 0 W/m2
21:47 72.3 °F /  22.4 °C 59 °F /  15 °C 30in /  1017.3hPa Calm     63% 0in /  0.0mm 0 W/m2
21:52 72 °F /  22.2 °C 59.5 °F /  15.3 °C 30in /  1017.3hPa Calm     65% 0in /  0.0mm 0 W/m2
21:57 71.6 °F /  22 °C 59.2 °F /  15.1 °C 30in /  1017.3hPa Calm     65% 0in /  0.0mm 0 W/m2
22:02 71.2 °F /  21.8 °C 59.4 °F /  15.2 °C 30in /  1017.3hPa Calm     66% 0in /  0.0mm 0 W/m2
22:07 71.1 °F /  21.7 °C 59.5 °F /  15.3 °C 30in /  1017.3hPa Calm     67% 0in /  0.0mm 0 W/m2
22:12 70.5 °F /  21.4 °C 59.4 °F /  15.2 °C 30in /  1017.3hPa Calm     68% 0in /  0.0mm 0 W/m2
22:17 70.3 °F /  21.3 °C 59.4 °F /  15.2 °C 30in /  1017.3hPa Calm     68% 0in /  0.0mm 0 W/m2
22:22 70.2 °F /  21.2 °C 59.5 °F /  15.3 °C 30in /  1017.3hPa Calm     69% 0in /  0.0mm 0 W/m2
22:27 70 °F /  21.1 °C 59.4 °F /  15.2 °C 30in /  1017.3hPa Calm     69% 0in /  0.0mm 0 W/m2
22:32 70 °F /  21.1 °C 59.7 °F /  15.4 °C 30in /  1017.3hPa Calm     70% 0in /  0.0mm 0 W/m2
22:37 69.6 °F /  20.9 °C 59.4 °F /  15.2 °C 30in /  1017.3hPa Calm     70% 0in /  0.0mm 0 W/m2
22:42 69.4 °F /  20.8 °C 59.2 °F /  15.1 °C 30.1in /  1017.6hPa Calm     70% 0in /  0.0mm 0 W/m2
22:47 69.3 °F /  20.7 °C 59.5 °F /  15.3 °C 30.1in /  1017.6hPa Calm     71% 0in /  0.0mm 0 W/m2
22:52 69.1 °F /  20.6 °C 59.4 °F /  15.2 °C 30.1in /  1017.6hPa Calm     71% 0in /  0.0mm 0 W/m2
22:57 68.7 °F /  20.4 °C 59 °F /  15 °C 30.1in /  1017.6hPa Calm     71% 0in /  0.0mm 0 W/m2
23:02 68.5 °F /  20.3 °C 59.2 °F /  15.1 °C 30.1in /  1017.6hPa Calm     72% 0in /  0.0mm 0 W/m2
23:07 68.4 °F /  20.2 °C 59 °F /  15 °C 30.1in /  1017.6hPa Calm     72% 0in /  0.0mm 0 W/m2
23:12 68.2 °F /  20.1 °C 58.8 °F /  14.9 °C 30.1in /  1017.6hPa Calm     72% 0in /  0.0mm 0 W/m2
23:17 68 °F /  20 °C 58.6 °F /  14.8 °C 30.1in /  1017.6hPa Calm     72% 0in /  0.0mm 0 W/m2
23:22 67.8 °F /  19.9 °C 58.5 °F /  14.7 °C 30in /  1017.3hPa Calm     72% 0in /  0.0mm 0 W/m2
23:27 67.6 °F /  19.8 °C 58.6 °F /  14.8 °C 30in /  1017.3hPa Calm     73% 0in /  0.0mm 0 W/m2
23:32 67.5 °F /  19.7 °C 58.5 °F /  14.7 °C 30in /  1017.3hPa Calm     73% 0in /  0.0mm 0 W/m2
23:37 67.5 °F /  19.7 °C 58.5 °F /  14.7 °C 30.1in /  1017.6hPa Calm     73% 0in /  0.0mm 0 W/m2
23:42 67.3 °F /  19.6 °C 58.3 °F /  14.6 °C 30in /  1017.3hPa Calm     73% 0in /  0.0mm 0 W/m2
23:47 66.9 °F /  19.4 °C 57.9 °F /  14.4 °C 30in /  1017.3hPa Calm     73% 0in /  0.0mm 0 W/m2
23:52 66.9 °F /  19.4 °C 58.3 °F /  14.6 °C 30in /  1017.3hPa Calm     74% 0in /  0.0mm 0 W/m2
23:58 66.7 °F /  19.3 °C 58.1 °F /  14.5 °C 30in /  1017.3hPa Calm     74% 0in /  0.0mm 0 W/m2
Juneau County Weather
Compliments of Weather Underground - 4 mb